Time;durP1;ratioP1;P1;durP2;ratioP2;P2;SDS_P1;SDS_P2;PMS_P1;PMS_P2;Temp;Humidity;BMP_temperature;BMP_pressure;BME280_temperature;BME280_humidity;BME280_pressure;Samples;Min_cycle;Max_cycle;Signal;HPM_P1;HPM_P2
2024/04/02 00:01:08;;;;;;;2.30;1.50;;;7.40;97.00;;;;;;5015747;28;20126;-65
2024/04/02 00:03:34;;;;;;;3.38;1.88;;;7.50;96.70;;;;;;5016107;28;20045;-65
2024/04/02 00:06:00;;;;;;;4.90;2.60;;;7.40;96.80;;;;;;5017966;28;20030;-66
2024/04/02 00:08:27;;;;;;;4.60;1.88;;;7.40;96.80;;;;;;5021347;28;20101;-65
2024/04/02 00:10:52;;;;;;;4.65;1.85;;;7.40;96.80;;;;;;5019754;28;20037;-65
2024/04/02 00:13:18;;;;;;;3.95;2.10;;;7.40;96.80;;;;;;5020000;28;20365;-66
2024/04/02 00:15:47;;;;;;;3.35;2.30;;;7.40;96.70;;;;;;5018303;28;20036;-65
2024/04/02 00:18:15;;;;;;;4.63;2.60;;;7.40;96.40;;;;;;5017741;28;20347;-65
2024/04/02 00:20:41;;;;;;;4.20;2.20;;;7.40;96.40;;;;;;5018110;28;20150;-66
2024/04/02 00:23:06;;;;;;;3.63;2.30;;;7.40;96.10;;;;;;5019665;28;20081;-65
2024/04/02 00:25:32;;;;;;;3.58;2.08;;;7.40;96.10;;;;;;5026755;28;20120;-65
2024/04/02 00:27:57;;;;;;;3.00;2.03;;;7.40;96.00;;;;;;5020875;28;20049;-66
2024/04/02 00:30:28;;;;;;;3.42;1.60;;;7.40;95.80;;;;;;5019666;28;20171;-65
2024/04/02 00:32:55;;;;;;;6.75;2.00;;;7.40;95.80;;;;;;5017984;28;20046;-66
2024/04/02 00:35:20;;;;;;;3.17;1.95;;;7.30;96.10;;;;;;5020671;28;20061;-65
2024/04/02 00:37:53;;;;;;;3.17;1.80;;;7.30;96.10;;;;;;5015430;28;20115;-66
2024/04/02 00:40:19;;;;;;;4.43;2.15;;;7.30;96.10;;;;;;5022469;28;20431;-65
2024/04/02 00:42:45;;;;;;;3.13;1.83;;;7.20;96.00;;;;;;5020367;28;20029;-67
2024/04/02 00:45:12;;;;;;;4.85;2.33;;;7.30;95.90;;;;;;5021722;28;20101;-66
2024/04/02 00:47:38;;;;;;;3.20;1.73;;;7.20;95.90;;;;;;5019849;28;20460;-65
2024/04/02 00:50:05;;;;;;;3.40;1.65;;;7.20;96.20;;;;;;5024334;28;20115;-66
2024/04/02 00:52:31;;;;;;;4.22;1.77;;;7.10;96.20;;;;;;5020958;28;20028;-66
2024/04/02 00:54:57;;;;;;;3.85;1.92;;;7.10;96.20;;;;;;5017012;28;20041;-64
2024/04/02 00:57:23;;;;;;;3.40;2.10;;;7.10;96.20;;;;;;5017508;28;20135;-64
2024/04/02 00:59:49;;;;;;;2.88;1.48;;;7.10;96.30;;;;;;5019741;28;20112;-66
2024/04/02 01:02:15;;;;;;;4.30;1.77;;;7.00;96.40;;;;;;5020353;28;20481;-67
2024/04/02 01:04:41;;;;;;;3.22;1.70;;;7.00;96.50;;;;;;5016979;28;20051;-67
2024/04/02 01:07:07;;;;;;;3.92;1.85;;;7.00;96.50;;;;;;5021810;28;20188;-66
2024/04/02 01:09:34;;;;;;;2.40;1.63;;;7.00;96.50;;;;;;5023721;28;20029;-64
2024/04/02 01:12:00;;;;;;;2.55;1.45;;;6.90;96.80;;;;;;5016803;28;20143;-63
2024/04/02 01:14:26;;;;;;;2.92;1.50;;;6.90;96.70;;;;;;5018463;28;20400;-66
2024/04/02 01:16:51;;;;;;;2.80;1.60;;;6.90;96.70;;;;;;5018195;28;20042;-67
2024/04/02 01:19:17;;;;;;;3.75;1.85;;;6.90;96.70;;;;;;5021395;28;20355;-66
2024/04/02 01:21:42;;;;;;;3.42;1.77;;;7.00;96.70;;;;;;5009849;28;20115;-66
2024/04/02 01:24:08;;;;;;;4.60;2.17;;;7.00;96.60;;;;;;5021625;28;20116;-64
2024/04/02 01:26:34;;;;;;;4.45;1.67;;;7.00;96.60;;;;;;5010347;28;20466;-64
2024/04/02 01:29:02;;;;;;;4.50;1.90;;;7.00;96.60;;;;;;5019099;28;20144;-64
2024/04/02 01:31:28;;;;;;;3.15;1.80;;;7.00;96.40;;;;;;5008872;28;20026;-64
2024/04/02 01:33:54;;;;;;;3.35;1.85;;;7.00;96.20;;;;;;5013520;28;20500;-63
2024/04/02 01:36:20;;;;;;;4.03;1.77;;;7.00;96.50;;;;;;5017994;28;20048;-66
2024/04/02 01:38:45;;;;;;;4.03;2.25;;;7.00;96.40;;;;;;5015367;28;20026;-65
2024/04/02 01:41:11;;;;;;;4.22;1.90;;;7.00;96.60;;;;;;5013593;28;20261;-65
2024/04/02 01:43:36;;;;;;;3.38;1.75;;;7.00;96.60;;;;;;5010299;28;20447;-64
2024/04/02 01:46:02;;;;;;;4.57;2.33;;;6.90;96.80;;;;;;5022107;28;20029;-64
2024/04/02 01:48:27;;;;;;;6.28;2.17;;;6.90;96.90;;;;;;5017978;28;20132;-64
2024/04/02 01:50:53;;;;;;;5.20;2.17;;;6.80;96.90;;;;;;5027883;28;20447;-64
2024/04/02 01:53:18;;;;;;;3.53;2.17;;;6.80;97.10;;;;;;5018332;28;20461;-63
2024/04/02 01:55:44;;;;;;;3.53;2.03;;;6.90;97.00;;;;;;5020564;28;20649;-65
2024/04/02 01:58:10;;;;;;;5.03;2.53;;;6.80;97.00;;;;;;5017032;28;20036;-64
2024/04/02 02:00:36;;;;;;;3.55;2.00;;;6.80;97.10;;;;;;5017396;28;20034;-64
2024/04/02 02:03:02;;;;;;;6.90;2.10;;;6.80;97.10;;;;;;5023280;28;20042;-65
2024/04/02 02:05:27;;;;;;;4.07;2.00;;;6.90;97.20;;;;;;5023219;28;20311;-64
2024/04/02 02:07:53;;;;;;;5.00;2.55;;;6.90;96.90;;;;;;5021124;28;20056;-64
2024/04/02 02:10:18;;;;;;;4.75;2.20;;;6.90;97.10;;;;;;5015250;28;20042;-63
2024/04/02 02:12:44;;;;;;;3.50;1.90;;;6.90;97.00;;;;;;5024849;28;20419;-64
2024/04/02 02:15:09;;;;;;;2.67;1.67;;;7.00;97.00;;;;;;5022113;28;20032;-64
2024/04/02 02:17:35;;;;;;;3.47;1.98;;;6.90;96.90;;;;;;5029129;28;20029;-64
2024/04/02 02:20:00;;;;;;;4.85;2.13;;;7.00;96.90;;;;;;5025609;28;20072;-64
2024/04/02 02:22:26;;;;;;;3.63;1.70;;;7.10;96.70;;;;;;5016691;28;20442;-64
2024/04/02 02:24:51;;;;;;;5.57;2.10;;;7.10;96.80;;;;;;5014094;28;20354;-64
2024/04/02 02:27:17;;;;;;;4.72;2.40;;;7.00;96.80;;;;;;5015730;28;20119;-65
2024/04/02 02:29:42;;;;;;;7.00;1.90;;;7.00;96.90;;;;;;5019125;28;20430;-64
2024/04/02 02:32:08;;;;;;;4.68;2.22;;;7.10;97.10;;;;;;5014673;28;20450;-65
2024/04/02 02:34:33;;;;;;;4.18;2.10;;;7.10;96.90;;;;;;5017752;28;20052;-64
2024/04/02 02:36:59;;;;;;;3.13;1.85;;;7.10;97.00;;;;;;5019773;28;20132;-64
2024/04/02 02:39:24;;;;;;;4.97;2.65;;;7.00;97.10;;;;;;5020380;28;20118;-65
2024/04/02 02:41:49;;;;;;;5.25;2.40;;;7.10;97.00;;;;;;5017693;28;20065;-66
2024/04/02 02:44:15;;;;;;;4.95;2.30;;;7.10;97.00;;;;;;5018858;28;20494;-65
2024/04/02 02:46:40;;;;;;;5.10;3.03;;;7.20;96.90;;;;;;5024357;28;20112;-65
2024/04/02 02:49:06;;;;;;;4.65;2.20;;;7.10;96.90;;;;;;5019431;28;20052;-65
2024/04/02 02:51:31;;;;;;;4.75;2.38;;;7.10;97.10;;;;;;5016718;28;20034;-65
2024/04/02 02:53:57;;;;;;;4.97;2.97;;;7.10;97.10;;;;;;5026126;28;20055;-65
2024/04/02 02:56:23;;;;;;;4.50;2.28;;;7.10;97.10;;;;;;5025481;28;20037;-65
2024/04/02 02:58:52;;;;;;;5.70;2.95;;;7.00;97.20;;;;;;5019551;28;20034;-65
2024/04/02 03:01:17;;;;;;;6.82;2.55;;;7.00;97.30;;;;;;5025169;28;20132;-65
2024/04/02 03:03:47;;;;;;;4.95;2.53;;;7.00;97.60;;;;;;5023125;28;20136;-65
2024/04/02 03:06:13;;;;;;;4.55;2.67;;;7.00;97.50;;;;;;5020145;28;20109;-65
2024/04/02 03:08:39;;;;;;;5.57;3.08;;;7.00;97.60;;;;;;5021777;28;20124;-65
2024/04/02 03:11:06;;;;;;;5.60;2.80;;;;;;;;;;5020615;28;20022;-65
2024/04/02 03:13:33;;;;;;;7.25;2.85;;;;;;;;;;5021686;28;20438;-65
2024/04/02 03:15:58;;;;;;;5.50;2.75;;;;;;;;;;5023216;28;20059;-65
2024/04/02 03:18:25;;;;;;;6.18;3.10;;;;;;;;;;5019751;28;20124;-65
2024/04/02 03:20:51;;;;;;;6.95;3.72;;;;;;;;;;5015380;28;20502;-65
2024/04/02 03:23:17;;;;;;;7.28;3.70;;;;;;;;;;5016819;28;20899;-66
2024/04/02 03:25:51;;;;;;;5.45;3.65;;;;;;;;;;5024656;28;20549;-64
2024/04/02 03:28:18;;;;;;;4.45;2.83;;;;;;;;;;5016004;28;20116;-66
2024/04/02 03:30:44;;;;;;;6.20;3.13;;;;;;;;;;5023952;28;20211;-65
2024/04/02 03:33:09;;;;;;;5.35;3.70;;;;;;;;;;5017873;28;20415;-65
2024/04/02 03:35:36;;;;;;;6.32;3.45;;;;;;;;;;5013938;28;20134;-64
2024/04/02 03:38:02;;;;;;;7.80;3.30;;;;;;;;;;5011654;28;20107;-65
2024/04/02 03:40:28;;;;;;;5.22;3.35;;;;;;;;;;5016902;28;20018;-65
2024/04/02 03:42:54;;;;;;;7.28;4.03;;;;;;;;;;5011430;28;20047;-65
2024/04/02 03:45:21;;;;;;;6.63;3.92;;;;;;;;;;5011650;28;20033;-65
2024/04/02 03:47:47;;;;;;;7.18;3.40;;;;;;;;;;5012401;28;20060;-65
2024/04/02 03:50:13;;;;;;;6.25;3.78;;;;;;;;;;5014802;28;20037;-65
2024/04/02 03:52:39;;;;;;;6.93;3.92;;;;;;;;;;5014911;28;20113;-64
2024/04/02 03:55:05;;;;;;;7.38;4.18;;;;;;;;;;5014484;28;20101;-65
2024/04/02 03:57:32;;;;;;;6.57;4.63;;;;;;;;;;5005352;28;20037;-66
2024/04/02 03:59:57;;;;;;;12.40;4.65;;;;;;;;;;5015726;28;20461;-64
2024/04/02 04:02:23;;;;;;;6.75;3.72;;;;;;;;;;5012619;28;20217;-64
2024/04/02 04:04:49;;;;;;;6.57;3.88;;;;;;;;;;5016040;28;20059;-65
2024/04/02 04:07:18;;;;;;;7.10;4.50;;;;;;;;;;5021668;28;20019;-65
2024/04/02 04:09:46;;;;;;;7.80;4.47;;;;;;;;;;5009515;28;20112;-64
2024/04/02 04:12:12;;;;;;;6.50;3.47;;;;;;;;;;5012028;28;20077;-66
2024/04/02 04:14:38;;;;;;;8.45;4.40;;;;;;;;;;5017140;28;20043;-64
2024/04/02 04:17:04;;;;;;;7.57;4.05;;;;;;;;;;5015989;28;20135;-65
2024/04/02 04:19:30;;;;;;;6.30;4.10;;;;;;;;;;5012583;28;20037;-65
2024/04/02 04:21:56;;;;;;;7.15;3.95;;;;;;;;;;5015904;28;20043;-65
2024/04/02 04:24:23;;;;;;;7.53;4.10;;;;;;;;;;5015699;28;20070;-64
2024/04/02 04:26:49;;;;;;;7.10;3.67;;;;;;;;;;5009179;28;20030;-64
2024/04/02 04:29:14;;;;;;;7.70;4.20;;;;;;;;;;5014735;28;20400;-63
2024/04/02 04:31:47;;;;;;;6.72;4.00;;;;;;;;;;5013927;28;20032;-63
2024/04/02 04:34:14;;;;;;;7.00;3.38;;;;;;;;;;5013261;28;20045;-64
2024/04/02 04:36:40;;;;;;;7.50;4.38;;;;;;;;;;5014938;28;20088;-64
2024/04/02 04:39:07;;;;;;;8.68;4.93;;;7.10;97.70;;;;;;5013463;28;20358;-64
2024/04/02 04:41:33;;;;;;;6.45;3.67;;;;;;;;;;5010823;28;20032;-63
2024/04/02 04:43:59;;;;;;;6.32;3.70;;;7.10;97.90;;;;;;5011911;28;20025;-63
2024/04/02 04:46:25;;;;;;;6.63;4.22;;;7.00;97.80;;;;;;5017107;28;20482;-63
2024/04/02 04:48:51;;;;;;;7.47;4.15;;;6.90;97.90;;;;;;5016731;28;20046;-63
2024/04/02 04:51:16;;;;;;;8.52;4.70;;;7.00;98.10;;;;;;5014979;28;20060;-62
2024/04/02 04:53:42;;;;;;;6.75;3.80;;;7.00;97.80;;;;;;5007565;28;20352;-63
2024/04/02 04:56:08;;;;;;;10.27;4.60;;;7.00;97.90;;;;;;5018268;28;20098;-65
2024/04/02 04:58:34;;;;;;;8.68;4.95;;;7.00;97.80;;;;;;5015175;28;20529;-63
2024/04/02 05:01:00;;;;;;;8.07;4.72;;;7.00;97.90;;;;;;5021239;28;20060;-63
2024/04/02 05:03:26;;;;;;;7.22;4.15;;;7.00;97.80;;;;;;5012964;28;20056;-63
2024/04/02 05:06:06;;;;;;;7.25;4.00;;;7.00;97.80;;;;;;5016503;28;20120;-63
2024/04/02 05:08:33;;;;;;;8.68;4.65;;;7.10;97.70;;;;;;5014202;28;20037;-64
2024/04/02 05:11:00;;;;;;;9.00;4.97;;;7.10;97.60;;;;;;5009193;28;20187;-63
2024/04/02 05:13:27;;;;;;;10.13;5.13;;;7.10;97.50;;;;;;5020585;28;20460;-64
2024/04/02 05:15:52;;;;;;;8.15;4.57;;;7.20;97.30;;;;;;5016944;28;20454;-66
2024/04/02 05:18:18;;;;;;;7.18;4.05;;;7.10;97.40;;;;;;5015300;28;20034;-65
2024/04/02 05:20:44;;;;;;;6.05;3.88;;;7.10;97.50;;;;;;5016530;28;20458;-64
2024/04/02 05:23:09;;;;;;;8.05;4.57;;;7.10;97.50;;;;;;5015046;28;20043;-66
2024/04/02 05:25:36;;;;;;;8.40;4.35;;;7.10;97.60;;;;;;5010831;28;20030;-65
2024/04/02 05:28:01;;;;;;;8.10;3.85;;;7.10;97.70;;;;;;5007287;28;20082;-66
2024/04/02 05:30:27;;;;;;;6.43;3.80;;;7.20;97.40;;;;;;5009877;28;20116;-65
2024/04/02 05:32:53;;;;;;;7.60;4.07;;;7.20;97.20;;;;;;5009516;28;20423;-64
2024/04/02 05:35:20;;;;;;;6.60;3.67;;;7.20;97.20;;;;;;5013615;28;20108;-65
2024/04/02 05:37:46;;;;;;;7.90;4.22;;;7.20;97.30;;;;;;5013073;28;20375;-63
2024/04/02 05:40:11;;;;;;;7.30;4.07;;;7.20;97.00;;;;;;5020367;28;20193;-64
2024/04/02 05:42:37;;;;;;;7.35;4.10;;;7.30;96.80;;;;;;5014505;28;20091;-64
2024/04/02 05:45:04;;;;;;;6.13;3.47;;;7.30;96.80;;;;;;5018321;28;20406;-65
2024/04/02 05:47:29;;;;;;;6.07;3.70;;;7.30;96.90;;;;;;5022871;28;20419;-65
2024/04/02 05:49:54;;;;;;;8.18;3.55;;;7.30;96.70;;;;;;5023156;28;20064;-65
2024/04/02 05:52:20;;;;;;;7.25;3.38;;;7.30;96.80;;;;;;5008530;28;20045;-64
2024/04/02 05:54:45;;;;;;;6.65;3.45;;;7.30;96.50;;;;;;5022110;28;20030;-65
2024/04/02 05:57:15;;;;;;;6.60;3.45;;;7.40;96.30;;;;;;5005944;28;20337;-67
2024/04/02 05:59:40;;;;;;;5.40;2.90;;;7.40;96.30;;;;;;5012474;28;20108;-64
2024/04/02 06:02:06;;;;;;;5.70;3.47;;;7.40;96.10;;;;;;5012169;28;20144;-65
2024/04/02 06:04:31;;;;;;;6.30;3.78;;;7.40;96.00;;;;;;5011594;28;20148;-65
2024/04/02 06:06:57;;;;;;;6.65;3.53;;;7.40;96.10;;;;;;5010776;28;20120;-64
2024/04/02 06:09:22;;;;;;;6.10;2.95;;;7.40;96.10;;;;;;5009755;28;20443;-62
2024/04/02 06:11:48;;;;;;;6.78;3.35;;;7.50;96.00;;;;;;5008821;28;20171;-63
2024/04/02 06:14:13;;;;;;;5.05;2.65;;;7.50;96.00;;;;;;5017657;28;20038;-62
2024/04/02 06:16:39;;;;;;;5.32;2.88;;;7.50;96.00;;;;;;5022628;28;20174;-62
2024/04/02 06:19:05;;;;;;;6.35;3.10;;;7.60;95.60;;;;;;5014074;28;20458;-63
2024/04/02 06:21:31;;;;;;;6.10;3.38;;;7.70;95.60;;;;;;5010847;28;20123;-65
2024/04/02 06:23:56;;;;;;;5.18;3.42;;;7.70;95.30;;;;;;5020331;28;20172;-64
2024/04/02 06:26:22;;;;;;;7.63;3.35;;;7.80;95.30;;;;;;5006378;28;20309;-63
2024/04/02 06:28:47;;;;;;;3.97;2.70;;;7.90;95.00;;;;;;5004832;28;20101;-63
2024/04/02 06:31:13;;;;;;;5.13;2.53;;;8.00;95.10;;;;;;5013764;28;20045;-63
2024/04/02 06:33:39;;;;;;;5.63;3.05;;;8.00;95.00;;;;;;5007781;28;20070;-63
2024/04/02 06:36:04;;;;;;;6.57;3.03;;;7.90;94.80;;;;;;5013613;28;20282;-63
2024/04/02 06:38:30;;;;;;;5.30;3.00;;;7.90;94.90;;;;;;5013408;28;20084;-64
2024/04/02 06:40:55;;;;;;;5.00;2.42;;;7.90;94.80;;;;;;5023954;28;20411;-64
2024/04/02 06:43:21;;;;;;;5.32;2.78;;;7.90;94.70;;;;;;5012410;28;20057;-64
2024/04/02 06:45:56;;;;;;;5.43;2.20;;;7.80;94.80;;;;;;5026320;28;20049;-63
2024/04/02 06:48:23;;;;;;;5.15;2.75;;;7.90;94.70;;;;;;5022403;28;20105;-64
2024/04/02 06:50:58;;;;;;;3.45;2.08;;;8.00;94.40;;;;;;5010094;28;20433;-63
2024/04/02 06:53:27;;;;;;;4.47;2.47;;;8.00;94.60;;;;;;5009363;28;20049;-64
2024/04/02 06:55:53;;;;;;;5.38;2.65;;;8.10;94.20;;;;;;5025753;28;20202;-63
2024/04/02 06:58:19;;;;;;;3.63;1.85;;;8.20;94.10;;;;;;5015279;28;20064;-63
2024/04/02 07:00:45;;;;;;;6.13;2.58;;;8.20;93.30;;;;;;5020017;28;20130;-63
2024/04/02 07:03:16;;;;;;;3.83;2.22;;;8.30;93.10;;;;;;5011855;28;20053;-65
2024/04/02 07:05:42;;;;;;;3.25;1.92;;;8.40;93.20;;;;;;5021351;28;20025;-64
2024/04/02 07:08:08;;;;;;;4.63;2.33;;;8.30;93.00;;;;;;5019452;28;20179;-63
2024/04/02 07:10:33;;;;;;;4.20;2.38;;;8.30;92.90;;;;;;5013006;28;20475;-64
2024/04/02 07:12:58;;;;;;;4.65;1.95;;;8.30;93.00;;;;;;5009046;28;20455;-64
2024/04/02 07:15:24;;;;;;;4.57;2.20;;;8.40;93.20;;;;;;5015802;28;20081;-63
2024/04/02 07:17:50;;;;;;;4.75;1.98;;;8.40;93.00;;;;;;5015271;28;20033;-65
2024/04/02 07:20:15;;;;;;;2.67;1.42;;;8.40;93.00;;;;;;5022195;28;20041;-64
2024/04/02 07:22:41;;;;;;;3.22;1.73;;;8.40;92.80;;;;;;5018739;28;20076;-65
2024/04/02 07:25:06;;;;;;;3.33;1.67;;;8.40;93.20;;;;;;5016475;28;20100;-64
2024/04/02 07:27:33;;;;;;;3.92;1.98;;;8.40;93.00;;;;;;5017162;28;20044;-64
2024/04/02 07:29:59;;;;;;;4.20;1.88;;;8.40;92.90;;;;;;5010473;28;20052;-64
2024/04/02 07:32:24;;;;;;;3.83;2.10;;;8.40;92.40;;;;;;5015240;28;20457;-64
2024/04/02 07:34:50;;;;;;;3.53;2.00;;;8.50;93.00;;;;;;5009537;28;20038;-65
2024/04/02 07:37:16;;;;;;;3.33;1.90;;;8.50;92.60;;;;;;5013467;28;20034;-63
2024/04/02 07:39:41;;;;;;;2.90;1.60;;;8.50;92.60;;;;;;5015721;28;20060;-64
2024/04/02 07:42:06;;;;;;;3.80;1.98;;;8.50;92.60;;;;;;5020044;28;20045;-64
2024/04/02 07:44:32;;;;;;;2.67;1.73;;;8.60;93.00;;;;;;5013573;28;20041;-64
2024/04/02 07:46:57;;;;;;;3.88;2.00;;;8.50;92.40;;;;;;5013730;28;20084;-64
2024/04/02 07:49:23;;;;;;;2.65;1.88;;;8.60;92.40;;;;;;5016977;28;20076;-65
2024/04/02 07:51:48;;;;;;;3.45;2.10;;;8.60;91.90;;;;;;5011123;28;20319;-64
2024/04/02 07:54:14;;;;;;;3.55;1.90;;;8.70;92.20;;;;;;5008724;28;20034;-64
2024/04/02 07:56:40;;;;;;;3.40;1.73;;;8.80;92.00;;;;;;5011925;28;20048;-64
2024/04/02 07:59:05;;;;;;;2.75;1.63;;;8.80;92.30;;;;;;5013885;28;20038;-64
2024/04/02 08:01:31;;;;;;;3.80;1.92;;;8.80;92.10;;;;;;5021353;28;20407;-65
2024/04/02 08:03:56;;;;;;;2.83;1.77;;;8.90;92.10;;;;;;5021832;28;20141;-65
2024/04/02 08:06:21;;;;;;;2.78;1.75;;;8.80;91.40;;;;;;5021125;28;20049;-64
2024/04/02 08:08:49;;;;;;;3.10;1.95;;;8.80;91.50;;;;;;5013390;28;20068;-64
2024/04/02 08:11:14;;;;;;;3.03;1.92;;;8.90;91.80;;;;;;5017228;28;20037;-63
2024/04/02 08:13:40;;;;;;;3.10;1.30;;;8.80;91.30;;;;;;5015840;28;20117;-64
2024/04/02 08:16:05;;;;;;;4.35;1.80;;;8.90;91.20;;;;;;5018712;28;20469;-63
2024/04/02 08:18:31;;;;;;;2.40;1.60;;;9.00;91.40;;;;;;5020932;28;20030;-64
2024/04/02 08:20:56;;;;;;;2.13;1.58;;;9.00;90.90;;;;;;5020418;28;20037;-63
2024/04/02 08:23:22;;;;;;;3.60;1.90;;;9.10;91.20;;;;;;5018167;28;20109;-64
2024/04/02 08:25:47;;;;;;;3.83;2.15;;;9.20;91.40;;;;;;5020381;28;20048;-64
2024/04/02 08:28:13;;;;;;;3.83;2.28;;;9.30;90.50;;;;;;5008281;28;20449;-64
2024/04/02 08:30:38;;;;;;;7.20;2.10;;;9.30;90.40;;;;;;5016255;28;20045;-65
2024/04/02 08:33:04;;;;;;;4.30;2.50;;;9.40;90.00;;;;;;5025330;28;20093;-64
2024/04/02 08:35:29;;;;;;;3.30;1.85;;;9.40;89.30;;;;;;5015979;28;20040;-64
2024/04/02 08:37:55;;;;;;;3.88;1.70;;;9.50;89.30;;;;;;5020652;28;20144;-65
2024/04/02 08:40:22;;;;;;;2.80;1.70;;;9.50;89.10;;;;;;5018753;28;20145;-64
2024/04/02 08:42:51;;;;;;;3.97;1.70;;;9.60;89.30;;;;;;5017593;28;20044;-64
2024/04/02 08:45:18;;;;;;;2.92;1.48;;;9.70;89.20;;;;;;5011606;28;20037;-64
2024/04/02 08:47:44;;;;;;;3.28;1.70;;;9.90;89.30;;;;;;5010285;28;20410;-64
2024/04/02 08:50:11;;;;;;;2.80;1.73;;;10.10;89.00;;;;;;5020030;28;20045;-64
2024/04/02 08:52:36;;;;;;;3.28;1.60;;;10.40;88.20;;;;;;5017709;28;20096;-63
2024/04/02 08:55:02;;;;;;;4.22;1.63;;;10.50;87.70;;;;;;5018122;28;20079;-64
2024/04/02 08:57:29;;;;;;;1.98;1.50;;;10.70;86.60;;;;;;5019931;28;20064;-64
2024/04/02 08:59:57;;;;;;;2.53;1.30;;;10.70;86.00;;;;;;5019724;28;20037;-64
2024/04/02 09:02:23;;;;;;;2.17;1.15;;;11.00;85.70;;;;;;5009782;28;20395;-66
2024/04/02 09:04:49;;;;;;;2.60;1.67;;;11.00;85.90;;;;;;5017137;28;20030;-64
2024/04/02 09:07:14;;;;;;;4.25;1.40;;;11.10;85.50;;;;;;5014973;28;20032;-64
2024/04/02 09:09:41;;;;;;;2.15;1.05;;;10.90;84.30;;;;;;5013611;28;20048;-64
2024/04/02 09:12:07;;;;;;;2.45;1.20;;;11.00;83.90;;;;;;5011685;28;20052;-64
2024/04/02 09:14:38;;;;;;;1.73;0.95;;;10.80;84.60;;;;;;5017539;28;20116;-64
2024/04/02 09:17:05;;;;;;;2.72;1.20;;;;;;;;;;5014067;28;20168;-64
2024/04/02 09:19:30;;;;;;;1.38;1.00;;;11.10;83.90;;;;;;5017457;28;20395;-64
2024/04/02 09:21:56;;;;;;;2.35;1.00;;;11.30;84.70;;;;;;5012548;28;20120;-64
2024/04/02 09:24:21;;;;;;;1.85;0.95;;;11.10;84.00;;;;;;5015289;28;20158;-64
2024/04/02 09:26:46;;;;;;;3.65;1.13;;;11.20;83.30;;;;;;5012456;28;20037;-64
2024/04/02 09:29:12;;;;;;;2.08;0.85;;;11.50;84.00;;;;;;5004752;28;20137;-64
2024/04/02 09:31:39;;;;;;;1.20;0.88;;;11.30;82.60;;;;;;5015206;28;20053;-64
2024/04/02 09:34:05;;;;;;;1.38;0.90;;;;;;;;;;5012021;28;20101;-64
2024/04/02 09:36:52;;;;;;;3.60;1.05;;;11.30;83.20;;;;;;5007571;28;20045;-64
2024/04/02 09:39:21;;;;;;;3.95;1.20;;;11.50;83.00;;;;;;5010255;28;20100;-64
2024/04/02 09:41:48;;;;;;;3.60;1.20;;;11.20;82.60;;;;;;5012208;28;20045;-63
2024/04/02 09:44:15;;;;;;;2.88;1.30;;;11.50;82.40;;;;;;5015596;28;20044;-64
2024/04/02 09:46:42;;;;;;;2.45;0.80;;;11.80;81.90;;;;;;5006534;28;20174;-64
2024/04/02 09:49:10;;;;;;;1.50;1.05;;;11.60;81.50;;;;;;5022906;28;20052;-64
2024/04/02 09:51:40;;;;;;;2.65;1.27;;;11.40;82.70;;;;;;5009862;28;20140;-65
2024/04/02 09:54:06;;;;;;;2.85;1.30;;;11.50;83.10;;;;;;5017214;28;20103;-66
2024/04/02 09:56:33;;;;;;;2.95;1.10;;;11.80;82.00;;;;;;5015635;28;20046;-64
2024/04/02 09:58:59;;;;;;;3.33;1.33;;;;;;;;;;5011837;28;20098;-64
2024/04/02 10:01:28;;;;;;;2.72;1.25;;;11.90;81.20;;;;;;5021263;28;20030;-64
2024/04/02 10:03:57;;;;;;;1.42;0.88;;;11.90;81.10;;;;;;5023878;28;20060;-64
2024/04/02 10:06:23;;;;;;;1.35;0.90;;;12.30;80.90;;;;;;5010598;28;20029;-64
2024/04/02 10:09:01;;;;;;;0.90;0.73;;;12.40;79.80;;;;;;5022056;28;20130;-64
2024/04/02 10:11:38;;;;;;;1.48;0.82;;;12.60;80.70;;;;;;5015944;28;20034;-64
2024/04/02 10:14:12;;;;;;;2.60;0.70;;;12.00;79.60;;;;;;5019874;28;20033;-64
2024/04/02 10:16:45;;;;;;;1.42;0.80;;;;;;;;;;5017497;28;20119;-64
2024/04/02 10:19:19;;;;;;;0.63;0.60;;;11.60;80.40;;;;;;5021773;28;20110;-65
2024/04/02 10:21:45;;;;;;;1.70;0.93;;;11.60;80.40;;;;;;5015973;28;20045;-64
2024/04/02 10:24:11;;;;;;;0.93;0.80;;;11.50;80.60;;;;;;5019635;28;20192;-65
2024/04/02 10:26:38;;;;;;;1.92;1.02;;;11.70;80.30;;;;;;5011960;28;20137;-64
2024/04/02 10:29:04;;;;;;;1.45;0.70;;;11.80;79.80;;;;;;5014293;28;20041;-64
2024/04/02 10:31:39;;;;;;;1.17;0.85;;;11.90;79.80;;;;;;5017567;28;20032;-63
2024/04/02 10:34:09;;;;;;;1.45;0.70;;;12.40;78.50;;;;;;5016855;28;20037;-63
2024/04/02 10:36:36;;;;;;;1.65;0.90;;;12.60;78.60;;;;;;5017243;28;20048;-64
2024/04/02 10:39:03;;;;;;;1.00;0.70;;;12.30;78.50;;;;;;5011941;28;20103;-64
2024/04/02 10:41:31;;;;;;;1.05;0.90;;;12.20;78.70;;;;;;5019276;28;20025;-64
2024/04/02 10:43:58;;;;;;;2.22;1.20;;;12.00;79.00;;;;;;5009456;28;20148;-64
2024/04/02 10:46:27;;;;;;;3.33;1.27;;;12.10;79.40;;;;;;5012029;28;20046;-64
2024/04/02 10:48:59;;;;;;;0.88;0.82;;;11.90;79.40;;;;;;5013356;28;20117;-64
2024/04/02 10:51:27;;;;;;;2.45;1.08;;;11.70;80.00;;;;;;5014227;28;20099;-64
2024/04/02 10:53:56;;;;;;;1.17;0.90;;;;;;;;;;5009063;28;20040;-64
2024/04/02 10:56:23;;;;;;;2.90;1.17;;;;;;;;;;5013669;28;20022;-64
2024/04/02 10:58:53;;;;;;;3.35;0.80;;;11.70;81.20;;;;;;5008938;28;20120;-64
2024/04/02 11:01:19;;;;;;;2.03;1.20;;;;;;;;;;5016750;28;20116;-65
2024/04/02 11:03:45;;;;;;;1.42;0.85;;;12.00;80.00;;;;;;5010197;28;20146;-63
2024/04/02 11:06:11;;;;;;;2.20;1.08;;;;;;;;;;5024566;28;20037;-64
2024/04/02 11:08:40;;;;;;;2.13;1.10;;;;;;;;;;5009646;28;20200;-64
2024/04/02 11:11:07;;;;;;;2.63;1.10;;;;;;;;;;5011437;28;20132;-63
2024/04/02 11:13:33;;;;;;;1.25;0.85;;;;;;;;;;5012003;28;20095;-64
2024/04/02 11:15:59;;;;;;;2.05;1.10;;;11.50;81.50;;;;;;5017934;28;20380;-64
2024/04/02 11:18:25;;;;;;;4.10;1.20;;;11.40;81.90;;;;;;5010103;28;20133;-63
2024/04/02 11:20:58;;;;;;;0.85;0.75;;;;;;;;;;5010107;28;20091;-64
2024/04/02 11:26:20;;;;;;;1.65;1.10;;;11.70;81.70;;;;;;5014722;28;20049;-65
2024/04/02 11:28:46;;;;;;;1.55;0.82;;;11.90;82.10;;;;;;5019710;28;20049;-64
2024/04/02 11:31:13;;;;;;;2.05;1.17;;;11.80;81.10;;;;;;5020627;28;20080;-65
2024/04/02 11:33:39;;;;;;;1.35;1.10;;;11.50;82.00;;;;;;5009660;28;20030;-64
2024/04/02 11:36:05;;;;;;;2.80;1.40;;;11.40;82.20;;;;;;5009074;28;20040;-64
2024/04/02 11:38:31;;;;;;;2.55;1.13;;;11.10;82.30;;;;;;5011282;28;20038;-64
2024/04/02 11:40:57;;;;;;;1.60;1.05;;;11.10;82.90;;;;;;5011725;28;20044;-64
2024/04/02 11:43:23;;;;;;;1.70;0.90;;;11.10;83.00;;;;;;5010827;28;20113;-64
2024/04/02 11:45:50;;;;;;;2.17;1.20;;;11.00;83.40;;;;;;5016438;28;20101;-63
2024/04/02 11:48:15;;;;;;;2.85;1.20;;;11.10;83.40;;;;;;5019773;28;20097;-64
2024/04/02 11:50:41;;;;;;;1.33;1.05;;;11.20;84.00;;;;;;5015717;28;20128;-64
2024/04/02 11:53:06;;;;;;;1.77;1.20;;;11.20;84.00;;;;;;5014215;28;20082;-64
2024/04/02 11:55:32;;;;;;;3.25;1.40;;;;;;;;;;5016051;28;20076;-64
2024/04/02 12:00:42;;;;;;;2.78;1.27;;;10.70;85.70;;;;;;5015619;28;20077;-63
2024/04/02 12:03:07;;;;;;;1.60;1.13;;;10.70;86.40;;;;;;5017252;28;20058;-64
2024/04/02 12:05:33;;;;;;;1.98;1.20;;;10.60;86.80;;;;;;5016048;28;20159;-64
2024/04/02 12:07:58;;;;;;;1.35;1.25;;;10.70;86.80;;;;;;5010862;28;20457;-63
2024/04/02 12:10:24;;;;;;;3.22;1.33;;;10.80;86.80;;;;;;5015804;28;20124;-70
2024/04/02 12:12:52;;;;;;;2.65;1.25;;;10.70;85.90;;;;;;5012702;28;20037;-63
2024/04/02 12:15:17;;;;;;;3.10;1.40;;;11.00;85.80;;;;;;5015938;28;20099;-63
2024/04/02 12:17:43;;;;;;;2.72;1.38;;;11.10;85.10;;;;;;5014991;28;20071;-64
2024/04/02 12:20:11;;;;;;;2.35;1.23;;;11.40;84.60;;;;;;5010428;28;20166;-63
2024/04/02 12:22:37;;;;;;;4.13;1.30;;;11.40;83.00;;;;;;5017007;28;20376;-64
2024/04/02 12:25:03;;;;;;;1.92;1.20;;;11.30;83.70;;;;;;5016488;28;20060;-64
2024/04/02 12:27:30;;;;;;;1.90;1.20;;;11.00;84.40;;;;;;5011890;28;20037;-64
2024/04/02 12:29:57;;;;;;;1.90;1.48;;;10.70;87.10;;;;;;5008041;28;20367;-63
2024/04/02 12:32:28;;;;;;;2.53;1.30;;;10.50;89.40;;;;;;5011843;28;20026;-63
2024/04/02 12:34:54;;;;;;;5.07;1.95;;;10.40;90.80;;;;;;5012971;28;20319;-64
2024/04/02 12:37:20;;;;;;;3.45;1.45;;;;;;;;;;5008885;28;20033;-63
2024/04/02 12:39:47;;;;;;;3.20;1.58;;;;;;;;;;5009754;28;20029;-64
2024/04/02 12:42:21;;;;;;;2.92;1.48;;;11.00;89.70;;;;;;5007117;28;20112;-65
2024/04/02 12:44:53;;;;;;;2.83;1.40;;;11.50;88.80;;;;;;5011817;28;20448;-64
2024/04/02 12:47:21;;;;;;;4.32;1.38;;;;;;;;;;5009583;28;20033;-64
2024/04/02 12:49:47;;;;;;;3.42;1.30;;;11.80;85.40;;;;;;5017598;28;20457;-63
2024/04/02 12:52:13;;;;;;;2.20;1.40;;;11.40;86.40;;;;;;5013685;28;20122;-65
2024/04/02 12:54:38;;;;;;;2.50;1.20;;;11.20;86.70;;;;;;5015133;28;20041;-64
2024/04/02 12:57:04;;;;;;;1.38;0.93;;;11.10;87.00;;;;;;5013398;28;20124;-65
2024/04/02 12:59:29;;;;;;;1.80;1.20;;;11.10;87.50;;;;;;5015494;28;20034;-64
2024/04/02 13:01:55;;;;;;;2.28;1.13;;;11.20;86.30;;;;;;5012611;28;20109;-64
2024/04/02 13:04:22;;;;;;;1.55;1.25;;;11.40;86.30;;;;;;5013126;28;20082;-63
2024/04/02 13:06:48;;;;;;;4.63;1.40;;;11.70;86.50;;;;;;5011464;28;20034;-63
2024/04/02 13:09:13;;;;;;;2.10;1.23;;;11.90;85.80;;;;;;5010434;28;20386;-64
2024/04/02 13:11:39;;;;;;;4.00;1.60;;;11.60;85.70;;;;;;5013659;28;20053;-64